sensor_id;sensor_type;location;lat;lon;timestamp;temperature;humidity
30300;DHT22;17110;52.602;12.998;2022-07-31T00:01:11;14.90;99.90
30300;DHT22;17110;52.602;12.998;2022-07-31T00:03:37;14.90;99.90
30300;DHT22;17110;52.602;12.998;2022-07-31T00:06:02;14.80;99.90
30300;DHT22;17110;52.602;12.998;2022-07-31T00:08:28;14.70;99.90
30300;DHT22;17110;52.602;12.998;2022-07-31T00:10:54;14.80;99.90
30300;DHT22;17110;52.602;12.998;2022-07-31T00:13:19;14.80;99.90
30300;DHT22;17110;52.602;12.998;2022-07-31T00:15:45;14.80;99.90
30300;DHT22;17110;52.602;12.998;2022-07-31T00:18:11;14.70;99.90
30300;DHT22;17110;52.602;12.998;2022-07-31T00:20:36;14.70;99.90
30300;DHT22;17110;52.602;12.998;2022-07-31T00:23:02;14.60;99.90
30300;DHT22;17110;52.602;12.998;2022-07-31T00:25:28;14.60;99.90
30300;DHT22;17110;52.602;12.998;2022-07-31T00:27:55;14.60;99.90
30300;DHT22;17110;52.602;12.998;2022-07-31T00:30:20;14.60;99.90
30300;DHT22;17110;52.602;12.998;2022-07-31T00:32:46;14.50;99.90
30300;DHT22;17110;52.602;12.998;2022-07-31T00:35:12;14.50;99.90
30300;DHT22;17110;52.602;12.998;2022-07-31T00:37:41;14.50;99.90
30300;DHT22;17110;52.602;12.998;2022-07-31T00:40:08;14.50;99.90
30300;DHT22;17110;52.602;12.998;2022-07-31T00:42:34;14.50;99.90
30300;DHT22;17110;52.602;12.998;2022-07-31T00:45:00;14.50;99.90
30300;DHT22;17110;52.602;12.998;2022-07-31T00:47:26;14.50;99.90
30300;DHT22;17110;52.602;12.998;2022-07-31T00:49:52;14.50;99.90
30300;DHT22;17110;52.602;12.998;2022-07-31T00:52:18;14.40;99.90
30300;DHT22;17110;52.602;12.998;2022-07-31T00:54:44;14.40;99.90
30300;DHT22;17110;52.602;12.998;2022-07-31T00:57:10;14.40;99.90
30300;DHT22;17110;52.602;12.998;2022-07-31T00:59:36;14.30;99.90
30300;DHT22;17110;52.602;12.998;2022-07-31T01:02:02;14.20;99.90
30300;DHT22;17110;52.602;12.998;2022-07-31T01:04:27;14.10;99.90
30300;DHT22;17110;52.602;12.998;2022-07-31T01:06:54;14.20;99.90
30300;DHT22;17110;52.602;12.998;2022-07-31T01:09:20;14.10;99.90
30300;DHT22;17110;52.602;12.998;2022-07-31T01:12:20;14.10;99.90
30300;DHT22;17110;52.602;12.998;2022-07-31T01:14:49;14.10;99.90
30300;DHT22;17110;52.602;12.998;2022-07-31T01:17:18;14.10;99.90
30300;DHT22;17110;52.602;12.998;2022-07-31T01:19:48;14.00;99.90
30300;DHT22;17110;52.602;12.998;2022-07-31T01:30:57;14.00;99.90
30300;DHT22;17110;52.602;12.998;2022-07-31T01:33:23;13.90;99.90
30300;DHT22;17110;52.602;12.998;2022-07-31T01:36:07;13.90;99.90
30300;DHT22;17110;52.602;12.998;2022-07-31T01:38:39;13.90;99.90
30300;DHT22;17110;52.602;12.998;2022-07-31T01:41:10;13.90;99.90
30300;DHT22;17110;52.602;12.998;2022-07-31T01:43:39;13.80;99.90
30300;DHT22;17110;52.602;12.998;2022-07-31T01:46:09;13.70;99.90
30300;DHT22;17110;52.602;12.998;2022-07-31T01:48:36;13.70;99.90
30300;DHT22;17110;52.602;12.998;2022-07-31T01:51:04;13.70;99.90
30300;DHT22;17110;52.602;12.998;2022-07-31T01:53:31;13.70;99.90
30300;DHT22;17110;52.602;12.998;2022-07-31T01:55:58;13.70;99.90
30300;DHT22;17110;52.602;12.998;2022-07-31T01:58:25;13.60;99.90
30300;DHT22;17110;52.602;12.998;2022-07-31T02:00:54;13.60;99.90
30300;DHT22;17110;52.602;12.998;2022-07-31T02:03:23;13.60;99.90
30300;DHT22;17110;52.602;12.998;2022-07-31T02:05:50;13.60;99.90
30300;DHT22;17110;52.602;12.998;2022-07-31T02:08:17;13.50;99.90
30300;DHT22;17110;52.602;12.998;2022-07-31T02:10:44;13.60;99.90
30300;DHT22;17110;52.602;12.998;2022-07-31T02:13:12;13.50;99.90
30300;DHT22;17110;52.602;12.998;2022-07-31T02:15:42;13.50;99.90
30300;DHT22;17110;52.602;12.998;2022-07-31T02:18:09;13.50;99.90
30300;DHT22;17110;52.602;12.998;2022-07-31T02:20:36;13.50;99.90
30300;DHT22;17110;52.602;12.998;2022-07-31T02:23:03;13.60;99.90
30300;DHT22;17110;52.602;12.998;2022-07-31T02:25:29;13.60;99.90
30300;DHT22;17110;52.602;12.998;2022-07-31T02:27:56;13.50;99.90
30300;DHT22;17110;52.602;12.998;2022-07-31T02:30:29;13.40;99.90
30300;DHT22;17110;52.602;12.998;2022-07-31T02:32:55;13.40;99.90
30300;DHT22;17110;52.602;12.998;2022-07-31T02:35:21;13.40;99.90
30300;DHT22;17110;52.602;12.998;2022-07-31T02:37:49;13.30;99.90
30300;DHT22;17110;52.602;12.998;2022-07-31T02:40:16;13.30;99.90
30300;DHT22;17110;52.602;12.998;2022-07-31T02:42:45;13.20;99.90
30300;DHT22;17110;52.602;12.998;2022-07-31T02:45:11;13.20;99.90
30300;DHT22;17110;52.602;12.998;2022-07-31T02:47:38;13.20;99.90
30300;DHT22;17110;52.602;12.998;2022-07-31T02:50:05;13.20;99.90
30300;DHT22;17110;52.602;12.998;2022-07-31T02:52:32;13.20;99.90
30300;DHT22;17110;52.602;12.998;2022-07-31T02:54:58;13.20;99.90
30300;DHT22;17110;52.602;12.998;2022-07-31T02:57:24;13.20;99.90
30300;DHT22;17110;52.602;12.998;2022-07-31T02:59:50;13.20;99.90
30300;DHT22;17110;52.602;12.998;2022-07-31T03:02:16;13.20;99.90
30300;DHT22;17110;52.602;12.998;2022-07-31T03:04:42;13.10;99.90
30300;DHT22;17110;52.602;12.998;2022-07-31T03:07:08;13.10;99.90
30300;DHT22;17110;52.602;12.998;2022-07-31T03:09:34;13.00;99.90
30300;DHT22;17110;52.602;12.998;2022-07-31T03:12:02;13.00;99.90
30300;DHT22;17110;52.602;12.998;2022-07-31T03:14:28;13.00;99.90
30300;DHT22;17110;52.602;12.998;2022-07-31T03:16:55;13.00;99.90
30300;DHT22;17110;52.602;12.998;2022-07-31T03:19:23;13.00;99.90
30300;DHT22;17110;52.602;12.998;2022-07-31T03:21:50;13.00;99.90
30300;DHT22;17110;52.602;12.998;2022-07-31T03:24:16;13.00;99.90
30300;DHT22;17110;52.602;12.998;2022-07-31T03:26:42;13.00;99.90
30300;DHT22;17110;52.602;12.998;2022-07-31T03:29:08;13.00;99.90
30300;DHT22;17110;52.602;12.998;2022-07-31T03:31:34;12.90;99.90
30300;DHT22;17110;52.602;12.998;2022-07-31T03:34:00;12.90;99.90
30300;DHT22;17110;52.602;12.998;2022-07-31T03:36:25;12.80;99.90
30300;DHT22;17110;52.602;12.998;2022-07-31T03:38:52;12.90;99.90
30300;DHT22;17110;52.602;12.998;2022-07-31T03:41:18;12.90;99.90
30300;DHT22;17110;52.602;12.998;2022-07-31T03:43:45;12.90;99.90
30300;DHT22;17110;52.602;12.998;2022-07-31T03:46:12;12.90;99.90
30300;DHT22;17110;52.602;12.998;2022-07-31T03:48:39;12.90;99.90
30300;DHT22;17110;52.602;12.998;2022-07-31T03:51:06;13.00;99.90
30300;DHT22;17110;52.602;12.998;2022-07-31T03:53:31;13.00;99.90
30300;DHT22;17110;52.602;12.998;2022-07-31T03:55:58;12.90;99.90
30300;DHT22;17110;52.602;12.998;2022-07-31T03:58:25;13.00;99.90
30300;DHT22;17110;52.602;12.998;2022-07-31T04:00:51;13.00;99.90
30300;DHT22;17110;52.602;12.998;2022-07-31T04:03:17;13.00;99.90
30300;DHT22;17110;52.602;12.998;2022-07-31T04:05:43;13.10;99.90
30300;DHT22;17110;52.602;12.998;2022-07-31T04:08:09;13.00;99.90
30300;DHT22;17110;52.602;12.998;2022-07-31T04:10:36;13.00;99.90
30300;DHT22;17110;52.602;12.998;2022-07-31T04:13:04;13.00;99.90
30300;DHT22;17110;52.602;12.998;2022-07-31T04:15:30;13.10;99.90
30300;DHT22;17110;52.602;12.998;2022-07-31T04:17:56;13.10;99.90
30300;DHT22;17110;52.602;12.998;2022-07-31T04:20:22;13.20;99.90
30300;DHT22;17110;52.602;12.998;2022-07-31T04:22:48;13.30;99.90
30300;DHT22;17110;52.602;12.998;2022-07-31T04:25:14;13.40;99.90
30300;DHT22;17110;52.602;12.998;2022-07-31T04:27:40;13.50;99.90
30300;DHT22;17110;52.602;12.998;2022-07-31T04:30:07;13.40;99.90
30300;DHT22;17110;52.602;12.998;2022-07-31T04:32:34;13.50;99.90
30300;DHT22;17110;52.602;12.998;2022-07-31T04:35:00;13.60;99.90
30300;DHT22;17110;52.602;12.998;2022-07-31T04:37:27;13.70;99.90
30300;DHT22;17110;52.602;12.998;2022-07-31T04:39:52;13.80;99.90
30300;DHT22;17110;52.602;12.998;2022-07-31T04:42:18;14.00;99.90
30300;DHT22;17110;52.602;12.998;2022-07-31T04:44:44;14.20;99.90
30300;DHT22;17110;52.602;12.998;2022-07-31T04:47:10;14.30;99.90
30300;DHT22;17110;52.602;12.998;2022-07-31T04:49:36;14.50;99.90
30300;DHT22;17110;52.602;12.998;2022-07-31T04:52:01;14.70;99.90
30300;DHT22;17110;52.602;12.998;2022-07-31T04:54:27;15.00;99.90
30300;DHT22;17110;52.602;12.998;2022-07-31T04:56:54;15.30;99.90
30300;DHT22;17110;52.602;12.998;2022-07-31T04:59:21;15.70;99.90
30300;DHT22;17110;52.602;12.998;2022-07-31T05:01:47;15.80;99.90
30300;DHT22;17110;52.602;12.998;2022-07-31T05:04:13;16.00;99.90
30300;DHT22;17110;52.602;12.998;2022-07-31T05:06:41;16.20;99.90
30300;DHT22;17110;52.602;12.998;2022-07-31T05:09:09;16.30;99.90
30300;DHT22;17110;52.602;12.998;2022-07-31T05:11:38;16.50;99.90
30300;DHT22;17110;52.602;12.998;2022-07-31T05:14:05;16.70;99.90
30300;DHT22;17110;52.602;12.998;2022-07-31T05:16:33;16.90;99.90
30300;DHT22;17110;52.602;12.998;2022-07-31T05:18:59;17.00;99.90
30300;DHT22;17110;52.602;12.998;2022-07-31T05:21:25;17.20;99.90
30300;DHT22;17110;52.602;12.998;2022-07-31T05:23:57;17.30;99.90
30300;DHT22;17110;52.602;12.998;2022-07-31T05:26:24;17.40;99.90
30300;DHT22;17110;52.602;12.998;2022-07-31T05:28:51;17.60;99.90
30300;DHT22;17110;52.602;12.998;2022-07-31T05:31:18;17.70;99.90
30300;DHT22;17110;52.602;12.998;2022-07-31T05:33:46;17.80;99.90
30300;DHT22;17110;52.602;12.998;2022-07-31T05:36:14;18.00;99.90
30300;DHT22;17110;52.602;12.998;2022-07-31T05:38:40;18.10;99.90
30300;DHT22;17110;52.602;12.998;2022-07-31T05:41:06;18.10;99.90
30300;DHT22;17110;52.602;12.998;2022-07-31T05:43:32;18.20;99.90
30300;DHT22;17110;52.602;12.998;2022-07-31T05:45:57;18.40;99.90
30300;DHT22;17110;52.602;12.998;2022-07-31T05:48:23;18.50;99.90
30300;DHT22;17110;52.602;12.998;2022-07-31T05:50:50;18.70;99.90
30300;DHT22;17110;52.602;12.998;2022-07-31T05:53:18;18.80;99.90
30300;DHT22;17110;52.602;12.998;2022-07-31T05:55:46;19.00;99.90
30300;DHT22;17110;52.602;12.998;2022-07-31T05:58:13;19.10;99.90
30300;DHT22;17110;52.602;12.998;2022-07-31T06:00:40;19.10;99.90
30300;DHT22;17110;52.602;12.998;2022-07-31T06:03:06;19.20;99.90
30300;DHT22;17110;52.602;12.998;2022-07-31T06:05:32;19.20;99.90
30300;DHT22;17110;52.602;12.998;2022-07-31T06:07:59;19.30;99.90
30300;DHT22;17110;52.602;12.998;2022-07-31T06:10:26;19.40;99.90
30300;DHT22;17110;52.602;12.998;2022-07-31T06:12:52;19.60;99.90
30300;DHT22;17110;52.602;12.998;2022-07-31T06:15:17;19.70;99.90
30300;DHT22;17110;52.602;12.998;2022-07-31T06:17:43;19.90;99.90
30300;DHT22;17110;52.602;12.998;2022-07-31T06:20:10;19.90;99.90
30300;DHT22;17110;52.602;12.998;2022-07-31T06:22:36;19.90;99.90
30300;DHT22;17110;52.602;12.998;2022-07-31T06:25:04;19.80;99.90
30300;DHT22;17110;52.602;12.998;2022-07-31T06:27:30;19.80;99.90
30300;DHT22;17110;52.602;12.998;2022-07-31T06:29:56;19.90;99.90
30300;DHT22;17110;52.602;12.998;2022-07-31T06:32:22;20.10;99.90
30300;DHT22;17110;52.602;12.998;2022-07-31T06:34:48;20.20;99.90
30300;DHT22;17110;52.602;12.998;2022-07-31T06:37:13;20.40;99.90
30300;DHT22;17110;52.602;12.998;2022-07-31T06:39:39;20.70;99.90
30300;DHT22;17110;52.602;12.998;2022-07-31T06:42:05;21.10;99.90
30300;DHT22;17110;52.602;12.998;2022-07-31T06:44:31;21.60;99.90
30300;DHT22;17110;52.602;12.998;2022-07-31T06:46:58;22.00;99.90
30300;DHT22;17110;52.602;12.998;2022-07-31T06:49:24;22.40;99.90
30300;DHT22;17110;52.602;12.998;2022-07-31T06:51:50;22.70;99.90
30300;DHT22;17110;52.602;12.998;2022-07-31T06:54:16;23.10;99.90
30300;DHT22;17110;52.602;12.998;2022-07-31T06:56:42;23.50;99.90
30300;DHT22;17110;52.602;12.998;2022-07-31T06:59:10;23.70;99.90
30300;DHT22;17110;52.602;12.998;2022-07-31T07:01:36;23.80;99.90
30300;DHT22;17110;52.602;12.998;2022-07-31T07:04:02;24.00;99.90
30300;DHT22;17110;52.602;12.998;2022-07-31T07:06:28;24.10;99.90
30300;DHT22;17110;52.602;12.998;2022-07-31T07:08:54;24.20;99.90
30300;DHT22;17110;52.602;12.998;2022-07-31T07:11:19;24.20;99.90
30300;DHT22;17110;52.602;12.998;2022-07-31T07:13:45;24.40;99.90
30300;DHT22;17110;52.602;12.998;2022-07-31T07:16:12;24.50;99.90
30300;DHT22;17110;52.602;12.998;2022-07-31T07:18:37;24.60;99.90
30300;DHT22;17110;52.602;12.998;2022-07-31T07:21:03;24.60;99.90
30300;DHT22;17110;52.602;12.998;2022-07-31T07:23:29;24.70;99.90
30300;DHT22;17110;52.602;12.998;2022-07-31T07:25:55;24.80;99.90
30300;DHT22;17110;52.602;12.998;2022-07-31T07:28:23;24.90;99.90
30300;DHT22;17110;52.602;12.998;2022-07-31T07:30:49;25.00;99.90
30300;DHT22;17110;52.602;12.998;2022-07-31T07:33:15;25.10;99.90
30300;DHT22;17110;52.602;12.998;2022-07-31T07:35:41;25.20;99.90
30300;DHT22;17110;52.602;12.998;2022-07-31T07:38:07;25.50;99.90
30300;DHT22;17110;52.602;12.998;2022-07-31T07:40:32;25.50;99.90
30300;DHT22;17110;52.602;12.998;2022-07-31T07:42:58;25.80;99.90
30300;DHT22;17110;52.602;12.998;2022-07-31T07:45:24;26.10;99.90
30300;DHT22;17110;52.602;12.998;2022-07-31T07:47:52;26.10;99.90
30300;DHT22;17110;52.602;12.998;2022-07-31T07:50:18;26.00;99.90
30300;DHT22;17110;52.602;12.998;2022-07-31T07:52:44;26.00;99.90
30300;DHT22;17110;52.602;12.998;2022-07-31T07:55:10;26.00;99.90
30300;DHT22;17110;52.602;12.998;2022-07-31T07:57:37;26.20;99.90
30300;DHT22;17110;52.602;12.998;2022-07-31T08:00:09;26.10;99.90
30300;DHT22;17110;52.602;12.998;2022-07-31T08:02:37;25.90;99.90
30300;DHT22;17110;52.602;12.998;2022-07-31T08:05:04;25.90;99.90
30300;DHT22;17110;52.602;12.998;2022-07-31T08:07:33;25.70;99.90
30300;DHT22;17110;52.602;12.998;2022-07-31T08:10:00;25.50;99.90
30300;DHT22;17110;52.602;12.998;2022-07-31T08:12:26;25.40;99.90
30300;DHT22;17110;52.602;12.998;2022-07-31T08:14:52;25.40;99.90
30300;DHT22;17110;52.602;12.998;2022-07-31T08:17:18;25.50;99.90
30300;DHT22;17110;52.602;12.998;2022-07-31T08:19:44;25.70;99.90
30300;DHT22;17110;52.602;12.998;2022-07-31T08:22:11;25.90;99.90
30300;DHT22;17110;52.602;12.998;2022-07-31T08:24:37;26.10;99.90
30300;DHT22;17110;52.602;12.998;2022-07-31T08:27:02;26.10;99.90
30300;DHT22;17110;52.602;12.998;2022-07-31T08:29:46;26.30;99.90
30300;DHT22;17110;52.602;12.998;2022-07-31T08:32:12;26.40;99.90
30300;DHT22;17110;52.602;12.998;2022-07-31T08:34:39;26.70;99.60
30300;DHT22;17110;52.602;12.998;2022-07-31T08:37:05;26.80;98.70
30300;DHT22;17110;52.602;12.998;2022-07-31T08:39:32;26.90;99.90
30300;DHT22;17110;52.602;12.998;2022-07-31T08:41:58;27.10;99.90
30300;DHT22;17110;52.602;12.998;2022-07-31T08:44:24;27.30;99.10
30300;DHT22;17110;52.602;12.998;2022-07-31T08:46:52;27.40;99.40
30300;DHT22;17110;52.602;12.998;2022-07-31T08:49:24;27.30;99.30
30300;DHT22;17110;52.602;12.998;2022-07-31T08:51:50;27.20;99.60
30300;DHT22;17110;52.602;12.998;2022-07-31T08:54:19;27.30;99.60
30300;DHT22;17110;52.602;12.998;2022-07-31T08:56:45;27.40;99.00
30300;DHT22;17110;52.602;12.998;2022-07-31T08:59:16;27.40;98.60
30300;DHT22;17110;52.602;12.998;2022-07-31T09:01:43;27.50;98.50
30300;DHT22;17110;52.602;12.998;2022-07-31T09:04:09;27.60;98.20
30300;DHT22;17110;52.602;12.998;2022-07-31T09:06:35;27.50;97.50
30300;DHT22;17110;52.602;12.998;2022-07-31T09:09:02;27.50;98.20
30300;DHT22;17110;52.602;12.998;2022-07-31T09:11:28;27.60;99.00
30300;DHT22;17110;52.602;12.998;2022-07-31T09:13:59;27.80;98.10
30300;DHT22;17110;52.602;12.998;2022-07-31T09:16:28;27.80;97.50
30300;DHT22;17110;52.602;12.998;2022-07-31T09:18:58;27.70;97.50
30300;DHT22;17110;52.602;12.998;2022-07-31T09:21:24;27.50;97.90
30300;DHT22;17110;52.602;12.998;2022-07-31T09:23:50;27.50;98.40
30300;DHT22;17110;52.602;12.998;2022-07-31T09:26:17;27.50;98.10
30300;DHT22;17110;52.602;12.998;2022-07-31T09:28:45;27.70;98.10
30300;DHT22;17110;52.602;12.998;2022-07-31T09:31:11;27.70;98.00
30300;DHT22;17110;52.602;12.998;2022-07-31T09:33:42;27.80;97.80
30300;DHT22;17110;52.602;12.998;2022-07-31T09:36:08;27.70;97.20
30300;DHT22;17110;52.602;12.998;2022-07-31T09:38:36;27.70;97.90
30300;DHT22;17110;52.602;12.998;2022-07-31T09:41:12;27.80;98.30
30300;DHT22;17110;52.602;12.998;2022-07-31T09:43:39;28.00;97.90
30300;DHT22;17110;52.602;12.998;2022-07-31T09:46:06;28.00;97.10
30300;DHT22;17110;52.602;12.998;2022-07-31T09:48:33;28.10;96.30
30300;DHT22;17110;52.602;12.998;2022-07-31T09:51:01;28.00;96.20
30300;DHT22;17110;52.602;12.998;2022-07-31T09:53:43;27.90;96.10
30300;DHT22;17110;52.602;12.998;2022-07-31T09:56:36;27.80;96.30
30300;DHT22;17110;52.602;12.998;2022-07-31T09:59:02;27.80;96.20
30300;DHT22;17110;52.602;12.998;2022-07-31T10:01:28;27.90;95.10
30300;DHT22;17110;52.602;12.998;2022-07-31T10:03:57;28.00;96.60
30300;DHT22;17110;52.602;12.998;2022-07-31T10:06:26;28.00;95.30
30300;DHT22;17110;52.602;12.998;2022-07-31T10:08:56;28.10;94.90
30300;DHT22;17110;52.602;12.998;2022-07-31T10:11:25;27.90;95.40
30300;DHT22;17110;52.602;12.998;2022-07-31T10:13:55;28.00;95.30
30300;DHT22;17110;52.602;12.998;2022-07-31T10:16:25;28.10;95.20
30300;DHT22;17110;52.602;12.998;2022-07-31T10:18:56;28.30;95.40
30300;DHT22;17110;52.602;12.998;2022-07-31T10:21:28;28.40;94.10
30300;DHT22;17110;52.602;12.998;2022-07-31T10:23:57;28.50;93.80
30300;DHT22;17110;52.602;12.998;2022-07-31T10:26:27;28.60;94.00
30300;DHT22;17110;52.602;12.998;2022-07-31T10:28:56;28.80;93.60
30300;DHT22;17110;52.602;12.998;2022-07-31T10:31:22;29.10;94.10
30300;DHT22;17110;52.602;12.998;2022-07-31T10:33:48;29.20;94.30
30300;DHT22;17110;52.602;12.998;2022-07-31T10:36:21;29.10;92.20
30300;DHT22;17110;52.602;12.998;2022-07-31T10:39:01;28.80;91.60
30300;DHT22;17110;52.602;12.998;2022-07-31T10:44:33;28.30;93.20
30300;DHT22;17110;52.602;12.998;2022-07-31T10:47:14;28.40;92.50
30300;DHT22;17110;52.602;12.998;2022-07-31T10:49:44;28.20;93.20
30300;DHT22;17110;52.602;12.998;2022-07-31T10:52:10;28.40;93.60
30300;DHT22;17110;52.602;12.998;2022-07-31T10:54:44;28.30;92.50
30300;DHT22;17110;52.602;12.998;2022-07-31T10:57:24;28.00;93.10
30300;DHT22;17110;52.602;12.998;2022-07-31T10:59:50;27.90;92.90
30300;DHT22;17110;52.602;12.998;2022-07-31T11:02:30;28.30;93.10
30300;DHT22;17110;52.602;12.998;2022-07-31T11:05:28;28.40;92.00
30300;DHT22;17110;52.602;12.998;2022-07-31T11:08:02;28.50;93.80
30300;DHT22;17110;52.602;12.998;2022-07-31T11:10:28;28.80;93.20
30300;DHT22;17110;52.602;12.998;2022-07-31T11:13:06;28.90;93.30
30300;DHT22;17110;52.602;12.998;2022-07-31T11:15:33;28.40;92.60
30300;DHT22;17110;52.602;12.998;2022-07-31T11:18:16;28.20;93.70
30300;DHT22;17110;52.602;12.998;2022-07-31T11:20:59;28.00;93.90
30300;DHT22;17110;52.602;12.998;2022-07-31T11:23:29;27.80;94.60
30300;DHT22;17110;52.602;12.998;2022-07-31T11:25:59;27.60;94.40
30300;DHT22;17110;52.602;12.998;2022-07-31T11:28:24;27.60;94.00
30300;DHT22;17110;52.602;12.998;2022-07-31T11:31:02;27.60;94.90
30300;DHT22;17110;52.602;12.998;2022-07-31T11:33:43;27.50;94.10
30300;DHT22;17110;52.602;12.998;2022-07-31T11:38:47;27.50;94.10
30300;DHT22;17110;52.602;12.998;2022-07-31T11:41:17;27.40;93.70
30300;DHT22;17110;52.602;12.998;2022-07-31T11:43:45;27.30;93.50
30300;DHT22;17110;52.602;12.998;2022-07-31T11:46:12;27.20;93.80
30300;DHT22;17110;52.602;12.998;2022-07-31T11:48:38;27.30;92.90
30300;DHT22;17110;52.602;12.998;2022-07-31T11:51:04;27.30;93.30
30300;DHT22;17110;52.602;12.998;2022-07-31T11:53:39;27.40;93.10
30300;DHT22;17110;52.602;12.998;2022-07-31T11:56:07;27.80;93.70
30300;DHT22;17110;52.602;12.998;2022-07-31T11:58:32;28.20;93.00
30300;DHT22;17110;52.602;12.998;2022-07-31T12:01:00;28.30;92.00
30300;DHT22;17110;52.602;12.998;2022-07-31T12:03:37;28.50;92.70
30300;DHT22;17110;52.602;12.998;2022-07-31T12:06:04;28.70;91.50
30300;DHT22;17110;52.602;12.998;2022-07-31T12:08:30;28.90;91.80
30300;DHT22;17110;52.602;12.998;2022-07-31T12:10:58;29.20;91.80
30300;DHT22;17110;52.602;12.998;2022-07-31T12:13:25;29.20;90.90
30300;DHT22;17110;52.602;12.998;2022-07-31T12:16:06;29.40;90.60
30300;DHT22;17110;52.602;12.998;2022-07-31T12:18:49;29.30;90.90
30300;DHT22;17110;52.602;12.998;2022-07-31T12:21:17;28.90;90.20
30300;DHT22;17110;52.602;12.998;2022-07-31T12:23:49;28.60;90.40
30300;DHT22;17110;52.602;12.998;2022-07-31T12:26:28;28.60;89.90
30300;DHT22;17110;52.602;12.998;2022-07-31T12:29:01;28.50;90.10
30300;DHT22;17110;52.602;12.998;2022-07-31T12:31:27;28.50;89.80
30300;DHT22;17110;52.602;12.998;2022-07-31T12:33:53;28.50;90.40
30300;DHT22;17110;52.602;12.998;2022-07-31T12:36:19;28.60;90.40
30300;DHT22;17110;52.602;12.998;2022-07-31T12:38:46;28.50;89.00
30300;DHT22;17110;52.602;12.998;2022-07-31T12:41:24;28.60;88.40
30300;DHT22;17110;52.602;12.998;2022-07-31T12:43:53;28.80;87.80
30300;DHT22;17110;52.602;12.998;2022-07-31T12:46:21;28.80;85.80
30300;DHT22;17110;52.602;12.998;2022-07-31T12:48:48;28.70;84.20
30300;DHT22;17110;52.602;12.998;2022-07-31T12:51:14;28.50;85.40
30300;DHT22;17110;52.602;12.998;2022-07-31T12:53:42;28.50;86.90
30300;DHT22;17110;52.602;12.998;2022-07-31T12:56:11;28.50;85.60
30300;DHT22;17110;52.602;12.998;2022-07-31T12:58:37;28.70;87.40
30300;DHT22;17110;52.602;12.998;2022-07-31T13:01:02;28.80;84.90
30300;DHT22;17110;52.602;12.998;2022-07-31T13:03:28;28.90;83.60
30300;DHT22;17110;52.602;12.998;2022-07-31T13:05:55;28.80;82.90
30300;DHT22;17110;52.602;12.998;2022-07-31T13:08:20;28.80;81.40
30300;DHT22;17110;52.602;12.998;2022-07-31T13:10:46;28.70;80.50
30300;DHT22;17110;52.602;12.998;2022-07-31T13:13:12;28.50;82.60
30300;DHT22;17110;52.602;12.998;2022-07-31T13:15:38;28.40;84.70
30300;DHT22;17110;52.602;12.998;2022-07-31T13:18:03;28.40;83.50
30300;DHT22;17110;52.602;12.998;2022-07-31T13:20:29;28.50;82.80
30300;DHT22;17110;52.602;12.998;2022-07-31T13:22:56;28.50;82.70
30300;DHT22;17110;52.602;12.998;2022-07-31T13:25:24;28.40;84.10
30300;DHT22;17110;52.602;12.998;2022-07-31T13:27:50;28.40;82.70
30300;DHT22;17110;52.602;12.998;2022-07-31T13:30:16;28.40;83.00
30300;DHT22;17110;52.602;12.998;2022-07-31T13:32:43;28.30;83.80
30300;DHT22;17110;52.602;12.998;2022-07-31T13:35:08;28.50;83.90
30300;DHT22;17110;52.602;12.998;2022-07-31T13:37:34;28.70;83.50
30300;DHT22;17110;52.602;12.998;2022-07-31T13:40:00;28.90;81.80
30300;DHT22;17110;52.602;12.998;2022-07-31T13:42:25;28.90;80.70
30300;DHT22;17110;52.602;12.998;2022-07-31T13:44:51;28.90;79.70
30300;DHT22;17110;52.602;12.998;2022-07-31T13:47:16;28.80;81.70
30300;DHT22;17110;52.602;12.998;2022-07-31T13:49:42;28.80;82.20
30300;DHT22;17110;52.602;12.998;2022-07-31T13:52:09;28.90;81.00
30300;DHT22;17110;52.602;12.998;2022-07-31T13:54:37;28.90;80.80
30300;DHT22;17110;52.602;12.998;2022-07-31T13:57:02;28.80;80.70
30300;DHT22;17110;52.602;12.998;2022-07-31T13:59:30;28.90;80.40
30300;DHT22;17110;52.602;12.998;2022-07-31T14:01:59;28.90;80.00
30300;DHT22;17110;52.602;12.998;2022-07-31T14:04:25;28.80;78.90
30300;DHT22;17110;52.602;12.998;2022-07-31T14:06:51;28.70;80.20
30300;DHT22;17110;52.602;12.998;2022-07-31T14:09:16;28.70;79.00
30300;DHT22;17110;52.602;12.998;2022-07-31T14:11:42;28.80;80.50
30300;DHT22;17110;52.602;12.998;2022-07-31T14:14:08;28.90;80.40
30300;DHT22;17110;52.602;12.998;2022-07-31T14:16:34;28.90;78.40
30300;DHT22;17110;52.602;12.998;2022-07-31T14:18:59;28.80;77.90
30300;DHT22;17110;52.602;12.998;2022-07-31T14:21:25;28.80;79.70
30300;DHT22;17110;52.602;12.998;2022-07-31T14:23:51;28.70;77.10
30300;DHT22;17110;52.602;12.998;2022-07-31T14:26:17;28.60;76.90
30300;DHT22;17110;52.602;12.998;2022-07-31T14:28:43;28.60;79.40
30300;DHT22;17110;52.602;12.998;2022-07-31T14:31:08;28.60;77.80
30300;DHT22;17110;52.602;12.998;2022-07-31T14:33:35;28.70;78.40
30300;DHT22;17110;52.602;12.998;2022-07-31T14:36:01;28.90;77.40
30300;DHT22;17110;52.602;12.998;2022-07-31T16:13:49;27.70;76.50
30300;DHT22;17110;52.602;12.998;2022-07-31T16:16:14;27.60;78.70
30300;DHT22;17110;52.602;12.998;2022-07-31T16:18:41;27.60;79.80
30300;DHT22;17110;52.602;12.998;2022-07-31T16:21:07;27.70;78.70
30300;DHT22;17110;52.602;12.998;2022-07-31T16:23:32;27.80;78.10
30300;DHT22;17110;52.602;12.998;2022-07-31T16:25:58;28.00;79.00
30300;DHT22;17110;52.602;12.998;2022-07-31T16:28:23;28.00;78.30
30300;DHT22;17110;52.602;12.998;2022-07-31T16:30:49;28.00;78.30
30300;DHT22;17110;52.602;12.998;2022-07-31T16:33:17;28.00;78.00
30300;DHT22;17110;52.602;12.998;2022-07-31T16:35:43;28.10;79.70
30300;DHT22;17110;52.602;12.998;2022-07-31T16:38:09;28.10;79.00
30300;DHT22;17110;52.602;12.998;2022-07-31T16:40:35;28.10;78.60
30300;DHT22;17110;52.602;12.998;2022-07-31T16:43:02;28.00;77.50
30300;DHT22;17110;52.602;12.998;2022-07-31T16:45:28;28.00;78.30
30300;DHT22;17110;52.602;12.998;2022-07-31T16:47:56;28.10;79.40
30300;DHT22;17110;52.602;12.998;2022-07-31T16:50:22;28.00;78.60
30300;DHT22;17110;52.602;12.998;2022-07-31T16:52:48;28.00;78.60
30300;DHT22;17110;52.602;12.998;2022-07-31T16:55:13;28.00;79.20
30300;DHT22;17110;52.602;12.998;2022-07-31T16:57:39;28.10;79.90
30300;DHT22;17110;52.602;12.998;2022-07-31T17:00:05;28.10;79.00
30300;DHT22;17110;52.602;12.998;2022-07-31T17:02:31;27.90;79.60
30300;DHT22;17110;52.602;12.998;2022-07-31T17:04:57;27.90;80.70
30300;DHT22;17110;52.602;12.998;2022-07-31T17:07:22;27.90;80.30